Time;durP1;ratioP1;P1;durP2;ratioP2;P2;SDS_P1;SDS_P2;PMS_P1;PMS_P2;Temp;Humidity;BMP_temperature;BMP_pressure;BME280_temperature;BME280_humidity;BME280_pressure;Samples;Min_cycle;Max_cycle;Signal;HPM_P1;HPM_P2
2020/12/15 00:00:20;;;;;;;6.30;3.40;;;;;;;4.58;77.66;98346.81;5013848;28;20025;-76
2020/12/15 00:02:46;;;;;;;5.53;3.17;;;;;;;4.50;77.31;98334.28;5027257;28;20135;-76
2020/12/15 00:05:11;;;;;;;4.95;3.20;;;;;;;4.58;76.85;98346.81;5024873;28;20116;-76
2020/12/15 00:07:36;;;;;;;6.35;3.30;;;;;;;4.47;77.44;98341.84;5013387;28;20383;-76
2020/12/15 00:10:02;;;;;;;5.60;3.25;;;;;;;4.45;77.85;98346.53;5031784;28;20125;-76
2020/12/15 00:12:27;;;;;;;10.10;3.80;;;;;;;4.44;78.27;98344.88;5029718;28;22343;-75
2020/12/15 00:14:53;;;;;;;6.75;3.78;;;;;;;4.21;79.12;98342.97;5030153;28;20041;-76
2020/12/15 00:17:18;;;;;;;6.10;3.78;;;;;;;4.04;80.06;98352.94;5014142;28;20131;-76
2020/12/15 00:19:43;;;;;;;10.63;4.25;;;;;;;3.87;80.66;98332.56;5030656;28;20419;-76
2020/12/15 00:22:08;;;;;;;9.70;4.53;;;;;;;3.78;81.05;98342.47;5030663;28;20041;-76
2020/12/15 00:24:34;;;;;;;6.68;4.03;;;;;;;3.81;81.36;98343.97;5027378;28;20025;-76
2020/12/15 00:26:59;;;;;;;8.32;4.85;;;;;;;3.65;82.47;98340.31;5034309;28;20434;-76
2020/12/15 00:29:24;;;;;;;9.30;4.75;;;;;;;3.76;82.23;98363.19;5015889;28;20120;-76
2020/12/15 00:31:50;;;;;;;8.10;4.88;;;;;;;3.68;82.26;98371.25;5031758;28;20534;-76
2020/12/15 00:34:15;;;;;;;9.07;4.97;;;;;;;3.65;82.28;98359.06;5011696;28;20113;-76
2020/12/15 00:36:40;;;;;;;9.65;4.75;;;;;;;3.66;82.44;98365.22;5031491;28;20036;-76
2020/12/15 00:39:06;;;;;;;9.80;5.50;;;;;;;3.68;81.80;98372.09;5031914;28;20021;-76
2020/12/15 00:41:31;;;;;;;11.00;5.95;;;;;;;3.71;82.10;98370.91;5012140;28;20087;-76
2020/12/15 00:43:57;;;;;;;9.00;5.03;;;;;;;3.69;82.15;98357.72;5007424;28;20037;-75
2020/12/15 00:46:22;;;;;;;9.57;5.00;;;;;;;3.71;81.67;98366.38;5021593;28;20108;-77
2020/12/15 00:48:47;;;;;;;10.95;4.95;;;;;;;3.70;81.73;98359.38;5018605;28;20407;-76
2020/12/15 00:51:20;;;;;;;10.75;5.13;;;;;;;3.65;81.76;98359.06;5031870;28;20048;-76
2020/12/15 00:53:46;;;;;;;10.75;5.95;;;;;;;3.69;82.08;98368.41;5030953;28;20479;-76
2020/12/15 00:56:13;;;;;;;11.00;5.22;;;;;;;3.52;82.76;98366.75;5030980;28;20037;-76
2020/12/15 00:58:38;;;;;;;9.73;6.22;;;;;;;3.45;83.28;98353.22;5029612;28;20029;-76
2020/12/15 01:01:05;;;;;;;10.57;5.55;;;;;;;3.43;83.62;98367.75;5029396;28;20563;-76
2020/12/15 01:03:30;;;;;;;13.90;5.45;;;;;;;3.61;83.58;98365.72;5031042;28;20029;-76
2020/12/15 01:05:57;;;;;;;10.55;5.80;;;;;;;3.55;82.96;98369.09;5031460;28;20075;-76
2020/12/15 01:08:22;;;;;;;13.50;6.07;;;;;;;3.49;83.16;98367.94;5028077;28;20549;-76
2020/12/15 01:10:47;;;;;;;10.95;5.63;;;;;;;3.49;83.66;98377.81;5022785;28;20029;-76
2020/12/15 01:13:13;;;;;;;10.52;5.30;;;;;;;3.47;83.71;98372.63;5030765;28;20163;-77
2020/12/15 01:15:38;;;;;;;10.70;5.35;;;;;;;3.54;83.76;98370.09;5029790;28;20396;-76
2020/12/15 01:18:03;;;;;;;11.30;5.53;;;;;;;3.54;83.46;98370.09;5031757;28;20029;-76
2020/12/15 01:20:28;;;;;;;10.82;5.50;;;;;;;3.68;83.53;98373.94;5027651;28;20030;-77
2020/12/15 01:22:54;;;;;;;9.75;4.82;;;;;;;3.82;83.11;98367.03;5032010;28;20402;-76
2020/12/15 01:25:19;;;;;;;9.10;4.72;;;;;;;3.73;83.04;98353.69;5047934;28;20044;-77
2020/12/15 01:27:44;;;;;;;12.38;6.20;;;;;;;4.02;82.49;98365.63;5042048;28;20052;-76
2020/12/15 01:30:09;;;;;;;8.80;5.05;;;;;;;4.08;81.79;98351.56;5033263;28;20080;-75
2020/12/15 01:32:35;;;;;;;9.90;5.72;;;;;;;4.03;81.91;98361.94;5016683;28;20395;-76
2020/12/15 01:35:00;;;;;;;13.55;5.22;;;;;;;3.88;82.60;98369.88;5029630;28;20044;-76
2020/12/15 01:37:25;;;;;;;8.38;5.03;;;;;;;3.89;82.17;98379.56;5029609;28;20070;-76
2020/12/15 01:39:51;;;;;;;11.30;5.55;;;;;;;3.75;83.08;98374.91;5030220;28;20170;-77
2020/12/15 01:42:16;;;;;;;8.63;5.38;;;;;;;3.77;83.54;98370.22;5030247;28;20029;-76
2020/12/15 01:44:41;;;;;;;19.38;7.53;;;;;;;3.65;83.97;98345.66;5035068;28;20036;-76
2020/12/15 01:47:07;;;;;;;22.20;8.90;;;;;;;3.63;84.28;98353.03;5033463;28;20025;-77
2020/12/15 01:49:32;;;;;;;20.30;8.07;;;;;;;3.69;84.03;98373.78;5031504;28;20029;-75
2020/12/15 01:51:58;;;;;;;14.80;6.60;;;;;;;3.59;84.37;98364.22;5035031;28;20085;-76
2020/12/15 01:54:24;;;;;;;12.43;6.10;;;;;;;3.56;84.75;98369.91;5034146;28;20514;-75
2020/12/15 01:56:49;;;;;;;11.90;5.72;;;;;;;3.53;84.91;98365.75;5034777;28;20033;-75
2020/12/15 01:59:15;;;;;;;12.60;6.53;;;;;;;3.43;84.79;98365.09;5032371;28;20034;-75
2020/12/15 02:01:45;;;;;;;13.85;6.25;;;;;;;3.46;84.72;98367.44;5014216;28;20018;-76
2020/12/15 02:04:11;;;;;;;11.02;5.95;;;;;;;3.55;85.14;98371.78;5030165;28;20036;-76
2020/12/15 02:06:38;;;;;;;12.90;6.35;;;;;;;3.54;85.03;98364.75;5030914;28;20029;-76
2020/12/15 02:09:06;;;;;;;13.63;6.90;;;;;;;3.46;85.11;98349.56;5033867;28;20037;-77
2020/12/15 02:11:32;;;;;;;10.52;5.88;;;;;;;3.56;85.27;98368.06;5034525;28;20120;-75
2020/12/15 02:13:57;;;;;;;12.05;5.68;;;;;;;3.86;84.02;98352.31;5033769;28;20036;-75
2020/12/15 02:16:22;;;;;;;13.25;6.00;;;;;;;3.80;83.62;98342.28;5032175;28;20037;-76
2020/12/15 02:18:48;;;;;;;12.90;5.70;;;;;;;3.88;83.68;98387.78;5016509;28;20590;-76
2020/12/15 02:21:13;;;;;;;11.82;5.50;;;;;;;3.82;83.12;98346.47;5017214;28;20028;-76
2020/12/15 02:23:38;;;;;;;10.18;5.60;;;;;;;3.82;83.67;98342.94;5034766;28;20037;-76
2020/12/15 02:26:08;;;;;;;10.60;5.60;;;;;;;3.89;83.27;98362.69;5015769;28;20433;-76
2020/12/15 02:28:34;;;;;;;9.60;5.43;;;;;;;3.87;83.58;98364.69;5034018;28;20033;-76
2020/12/15 02:31:01;;;;;;;9.98;5.38;;;;;;;3.72;84.47;98364.53;5033448;28;20032;-76
2020/12/15 02:33:26;;;;;;;8.50;5.05;;;;;;;3.63;84.39;98363.72;5033701;28;20056;-77
2020/12/15 02:35:52;;;;;;;9.98;5.47;;;;;;;3.67;84.23;98359.72;5031830;28;20073;-76
2020/12/15 02:38:18;;;;;;;11.45;5.70;;;;;;;3.70;83.78;98380.78;5016251;28;20052;-75
2020/12/15 02:40:43;;;;;;;8.25;4.95;;;;;;;3.88;83.72;98385.09;5031224;28;20109;-77
2020/12/15 02:43:09;;;;;;;9.48;5.20;;;;;;;3.70;83.45;98370.06;5023579;28;20132;-76
2020/12/15 02:45:34;;;;;;;8.55;5.40;;;;;;;3.84;84.54;98381.91;5033499;28;20033;-76
2020/12/15 02:47:59;;;;;;;10.13;5.70;;;;;;;3.71;84.52;98382.44;5032636;28;20106;-75
2020/12/15 02:50:25;;;;;;;8.35;4.82;;;;;;;3.71;84.59;98387.78;5030552;28;20056;-76
2020/12/15 02:52:50;;;;;;;9.55;5.28;;;;;;;3.57;84.88;98374.28;5018475;28;20022;-76
2020/12/15 02:55:16;;;;;;;9.35;5.18;;;;;;;3.55;84.69;98392.34;5015657;28;20067;-75
2020/12/15 02:57:42;;;;;;;10.88;5.60;;;;;;;3.44;85.29;98359.59;5032772;28;20105;-74
2020/12/15 03:00:09;;;;;;;10.27;5.10;;;;;;;3.50;84.85;98325.97;5014196;28;20112;-76
2020/12/15 03:02:34;;;;;;;7.97;5.07;;;;;;;3.55;85.61;98338.84;5032802;28;20390;-75
2020/12/15 03:05:00;;;;;;;10.73;5.30;;;;;;;3.85;84.82;98342.59;5015364;28;20112;-76
2020/12/15 03:07:25;;;;;;;9.93;5.10;;;;;;;3.92;83.60;98325.69;5013966;28;20102;-75
2020/12/15 03:09:50;;;;;;;8.90;4.85;;;;;;;3.85;84.75;98334.56;5016634;28;20025;-75
2020/12/15 03:12:15;;;;;;;8.65;4.80;;;;;;;3.99;83.74;98331.19;5034816;28;20104;-75
2020/12/15 03:14:41;;;;;;;8.88;4.43;;;;;;;4.12;83.39;98338.69;5026765;28;20549;-75
2020/12/15 03:17:06;;;;;;;9.25;4.15;;;;;;;4.18;83.08;98346.00;5032210;28;20037;-75
2020/12/15 03:19:31;;;;;;;8.98;4.63;;;;;;;4.10;83.22;98325.44;5031811;28;20427;-77
2020/12/15 03:21:57;;;;;;;7.03;3.97;;;;;;;4.17;83.33;98344.34;5032089;28;20053;-76
2020/12/15 03:24:22;;;;;;;10.07;4.88;;;;;;;3.91;83.71;98348.13;5016649;28;20072;-76
2020/12/15 03:26:47;;;;;;;8.32;4.78;;;;;;;3.71;84.41;98336.94;5025078;28;20028;-75
2020/12/15 03:29:12;;;;;;;8.13;4.60;;;;;;;3.69;85.53;98309.56;5032576;28;20083;-76
2020/12/15 03:31:38;;;;;;;8.63;4.40;;;;;;;3.79;85.54;98306.66;5029679;28;20436;-75
2020/12/15 03:34:03;;;;;;;6.40;4.03;;;;;;;3.70;85.84;98276.44;5023441;28;20029;-75
2020/12/15 03:36:29;;;;;;;4.53;2.83;;;;;;;3.96;84.41;98272.66;5030792;28;20103;-75
2020/12/15 03:38:55;;;;;;;4.57;2.25;;;;;;;3.98;83.49;98256.41;5032594;28;20121;-76
2020/12/15 03:41:20;;;;;;;5.40;2.55;;;;;;;4.18;82.01;98257.66;5032350;28;20112;-76
2020/12/15 03:43:45;;;;;;;5.25;2.17;;;;;;;4.49;80.89;98310.38;5033038;28;20094;-75
2020/12/15 03:46:10;;;;;;;8.60;3.55;;;;;;;4.47;82.73;98341.84;5031593;28;20120;-75
2020/12/15 03:48:36;;;;;;;7.63;3.63;;;;;;;4.30;82.72;98325.03;5027849;28;20036;-75
2020/12/15 03:51:01;;;;;;;5.38;3.28;;;;;;;4.15;81.80;98304.34;5033017;28;20033;-75
2020/12/15 03:53:26;;;;;;;7.25;3.70;;;;;;;4.28;80.82;98338.59;5032642;28;20036;-75
2020/12/15 03:55:51;;;;;;;7.47;3.70;;;;;;;4.29;82.40;98347.47;5047736;28;20039;-75
2020/12/15 03:58:17;;;;;;;5.93;3.42;;;;;;;4.30;82.53;98327.72;5032575;28;20403;-75
2020/12/15 04:00:43;;;;;;;6.47;3.53;;;;;;;4.32;83.68;98312.28;5028162;28;20056;-75
2020/12/15 04:03:09;;;;;;;5.57;3.30;;;;;;;4.27;83.72;98302.13;5031549;28;20072;-75
2020/12/15 04:05:35;;;;;;;5.72;3.17;;;;;;;4.34;83.07;98291.53;5031655;28;20040;-75
2020/12/15 04:08:00;;;;;;;7.15;4.13;;;;;;;4.36;82.81;98266.25;5030198;28;20033;-75
2020/12/15 04:10:25;;;;;;;5.72;3.55;;;;;;;4.44;83.04;98270.72;5031852;28;20029;-75
2020/12/15 04:12:51;;;;;;;4.72;2.83;;;;;;;4.35;83.92;98259.22;5017860;28;20044;-75
2020/12/15 04:15:16;;;;;;;4.70;2.65;;;;;;;4.41;83.98;98278.28;5030296;28;20063;-75
2020/12/15 04:17:41;;;;;;;5.25;2.90;;;;;;;4.51;82.85;98287.75;5024300;28;20029;-75
2020/12/15 04:20:07;;;;;;;5.55;3.30;;;;;;;4.47;83.69;98299.81;5012219;28;20038;-75
2020/12/15 04:22:33;;;;;;;4.65;2.92;;;;;;;4.47;83.79;98302.50;5019544;28;20029;-75
2020/12/15 04:24:59;;;;;;;9.68;3.50;;;;;;;4.18;83.96;98314.72;5022849;28;20033;-75
2020/12/15 04:27:25;;;;;;;6.57;3.60;;;;;;;3.96;85.52;98331.53;5013357;28;20033;-75
2020/12/15 04:29:50;;;;;;;5.63;3.55;;;;;;;4.14;85.00;98334.00;5030759;28;20438;-75
2020/12/15 04:32:16;;;;;;;8.57;3.60;;;;;;;4.08;85.01;98345.38;5013728;28;20022;-75
2020/12/15 04:34:41;;;;;;;7.32;3.33;;;;;;;4.06;83.99;98363.44;5014324;28;20030;-75
2020/12/15 04:37:06;;;;;;;5.78;3.40;;;;;;;4.10;84.20;98341.50;5028396;28;20037;-75
2020/12/15 04:39:31;;;;;;;6.50;3.65;;;;;;;4.34;83.23;98345.09;5031354;28;20022;-75
2020/12/15 04:41:57;;;;;;;8.60;3.13;;;;;;;4.54;83.04;98332.09;5031612;28;20021;-77
2020/12/15 04:44:24;;;;;;;5.25;3.08;;;;;;;4.61;82.37;98328.56;5028698;28;20423;-79
2020/12/15 04:47:05;;;;;;;7.57;3.50;;;;;;;4.57;83.10;98339.78;5030934;28;20040;-78
2020/12/15 04:49:44;;;;;;;6.43;3.03;;;;;;;4.58;82.67;98336.09;5013734;28;20025;-78
2020/12/15 04:52:13;;;;;;;5.68;3.35;;;;;;;4.57;82.71;98335.25;5012621;28;20109;-74
2020/12/15 04:54:44;;;;;;;6.65;3.55;;;;;;;4.40;83.79;98331.00;5031991;28;20032;-73
2020/12/15 04:57:13;;;;;;;7.40;3.55;;;;;;;4.44;83.34;98339.53;5025130;28;20021;-74
2020/12/15 04:59:41;;;;;;;6.10;3.38;;;;;;;4.36;83.38;98335.88;5027353;28;20079;-73
2020/12/15 05:02:06;;;;;;;8.88;3.53;;;;;;;4.37;83.17;98353.59;5028652;28;20419;-76
2020/12/15 05:04:39;;;;;;;6.22;3.30;;;;;;;4.40;83.23;98365.81;5009076;28;20076;-77
2020/12/15 05:07:06;;;;;;;6.35;3.70;;;;;;;4.45;83.67;98384.03;5025880;28;20127;-69
2020/12/15 05:09:33;;;;;;;8.50;4.10;;;;;;;4.46;84.06;98375.84;5031304;28;20022;-73
2020/12/15 05:11:59;;;;;;;5.90;3.45;;;;;;;4.40;84.08;98376.53;5029878;28;20498;-77
2020/12/15 05:14:25;;;;;;;6.70;3.70;;;;;;;4.34;84.26;98378.06;5013012;28;20053;-76
2020/12/15 05:16:51;;;;;;;6.25;3.53;;;;;;;4.35;84.27;98379.75;5016139;28;20067;-75
2020/12/15 05:19:17;;;;;;;5.95;3.33;;;;;;;4.39;83.48;98367.66;5024963;28;20079;-70
2020/12/15 05:22:11;;;;;;;7.47;3.33;;;;;;;4.45;83.09;98376.00;5037342;28;20034;-74
2020/12/15 05:24:37;;;;;;;8.32;3.28;;;;;;;4.44;83.27;98369.00;5009385;28;20056;-76
2020/12/15 05:27:02;;;;;;;7.03;3.75;;;;;;;4.47;82.86;98368.63;5041425;28;20395;-74
2020/12/15 05:29:27;;;;;;;6.50;3.70;;;;;;;4.76;82.07;98354.56;5033862;28;20079;-74
2020/12/15 05:31:54;;;;;;;6.03;3.80;;;;;;;4.64;82.37;98372.91;5017760;28;20312;-76
2020/12/15 05:34:24;;;;;;;7.05;3.55;;;;;;;4.82;82.71;98360.06;5034011;28;20036;-75
2020/12/15 05:36:50;;;;;;;8.15;4.22;;;;;;;4.69;83.17;98358.97;5021304;28;20391;-75
2020/12/15 05:39:15;;;;;;;6.28;3.97;;;;;;;4.59;82.94;98311.81;5030831;28;20494;-76
2020/12/15 05:41:41;;;;;;;6.32;3.85;;;;;;;4.63;83.47;98338.25;5023669;28;20056;-75
2020/12/15 05:44:07;;;;;;;9.55;3.92;;;;;;;4.51;84.62;98345.88;5017692;28;20090;-75
2020/12/15 05:46:33;;;;;;;10.23;4.13;;;;;;;4.35;84.39;98309.28;5033955;28;20026;-72
2020/12/15 05:49:06;;;;;;;11.20;4.60;;;;;;;4.55;84.30;98331.09;5032590;28;20017;-70
2020/12/15 05:51:42;;;;;;;10.18;4.32;;;;;;;4.58;83.48;98328.91;5034377;28;20028;-70
2020/12/15 05:54:14;;;;;;;7.75;4.32;;;;;;;4.45;84.48;98328.63;5031528;28;20026;-74
2020/12/15 05:56:41;;;;;;;6.78;4.05;;;;;;;4.27;84.43;98342.28;5032868;28;20087;-73
2020/12/15 05:59:20;;;;;;;9.05;4.50;;;;;;;4.34;84.89;98339.75;5034986;28;20044;-76
2020/12/15 06:01:53;;;;;;;7.57;3.88;;;;;;;4.30;84.39;98338.44;5032956;28;20120;-76
2020/12/15 06:04:20;;;;;;;8.80;3.85;;;;;;;4.39;84.73;98346.22;5031664;28;20029;-75
2020/12/15 06:06:46;;;;;;;10.07;4.00;;;;;;;4.48;84.85;98347.03;5032586;28;20503;-71
2020/12/15 06:09:16;;;;;;;11.57;4.18;;;;;;;4.53;85.24;98342.00;5032670;28;20029;-76
2020/12/15 06:11:44;;;;;;;7.43;4.40;;;;;;;4.54;84.83;98346.34;5037308;28;20033;-74
2020/12/15 06:14:10;;;;;;;7.45;4.00;;;;;;;4.59;84.70;98351.16;5033885;28;20029;-75
2020/12/15 06:16:36;;;;;;;6.32;3.65;;;;;;;4.61;83.82;98358.03;5032237;28;20029;-75
2020/12/15 06:19:06;;;;;;;7.95;3.90;;;;;;;4.53;83.88;98351.84;5033652;28;20029;-75
2020/12/15 06:21:32;;;;;;;7.20;3.78;;;;;;;4.53;83.75;98355.41;5030396;28;20044;-74
2020/12/15 06:24:02;;;;;;;9.77;3.63;;;;;;;4.56;84.26;98364.94;5034245;28;20092;-73
2020/12/15 06:26:28;;;;;;;9.05;3.67;;;;;;;4.50;84.65;98353.03;5031525;28;20520;-75
2020/12/15 06:29:05;;;;;;;6.18;3.15;;;;;;;4.55;84.71;98364.06;5015200;28;20034;-65
2020/12/15 06:31:31;;;;;;;8.57;3.72;;;;;;;4.66;85.16;98337.88;5033020;28;20021;-66
2020/12/15 06:33:58;;;;;;;13.10;5.90;;;;;;;4.97;84.63;98343.22;5034238;28;20390;-71
2020/12/15 06:36:33;;;;;;;11.82;5.80;;;;;;;4.92;82.50;98343.72;5032958;28;20079;-72
2020/12/15 06:39:00;;;;;;;9.65;4.85;;;;;;;4.86;82.83;98349.81;5015039;28;20051;-71
2020/12/15 06:41:27;;;;;;;10.35;4.85;;;;;;;4.91;83.16;98352.78;5032205;28;20029;-72
2020/12/15 06:44:04;;;;;;;9.10;4.80;;;;;;;4.87;83.59;98346.13;5032936;28;20080;-75
2020/12/15 06:46:30;;;;;;;8.50;3.85;;;;;;;4.83;83.89;98344.81;5033521;28;20487;-73
2020/12/15 06:48:55;;;;;;;6.47;3.42;;;;;;;4.79;83.50;98343.50;5016312;28;20021;-76
2020/12/15 06:51:32;;;;;;;5.97;3.33;;;;;;;4.79;84.52;98362.25;5025770;28;20022;-69
2020/12/15 06:53:59;;;;;;;6.43;4.03;;;;;;;4.68;83.67;98363.50;5033100;28;20430;-79
2020/12/15 06:56:26;;;;;;;5.20;3.30;;;;;;;4.59;84.29;98360.03;5013041;28;20440;-75
2020/12/15 06:59:05;;;;;;;7.20;3.70;;;;;;;4.74;83.44;98345.88;5023110;28;20045;-76
2020/12/15 07:01:33;;;;;;;9.15;3.70;;;;;;;4.68;83.88;98357.31;5014198;28;20026;-76
2020/12/15 07:03:59;;;;;;;8.18;3.83;;;;;;;4.63;84.77;98355.16;5023198;28;20025;-72
2020/12/15 07:06:25;;;;;;;8.75;3.63;;;;;;;4.49;83.80;98353.22;5032201;28;20033;-70
2020/12/15 07:09:03;;;;;;;6.40;3.60;;;;;;;4.81;83.04;98357.56;5027291;28;20079;-72
2020/12/15 07:11:29;;;;;;;7.18;3.53;;;;;;;4.78;82.69;98352.56;5033611;28;20079;-71
2020/12/15 07:13:59;;;;;;;6.97;3.70;;;;;;;4.70;83.30;98349.94;5014491;28;20025;-72
2020/12/15 07:16:25;;;;;;;6.60;3.83;;;;;;;4.83;83.12;98368.94;5032453;28;20537;-72
2020/12/15 07:18:51;;;;;;;5.50;3.20;;;;;;;4.83;82.78;98380.50;5029019;28;20017;-73
2020/12/15 07:21:17;;;;;;;5.95;3.60;;;;;;;4.78;82.89;98382.03;5016893;28;20025;-74
2020/12/15 07:23:43;;;;;;;7.32;3.58;;;;;;;4.74;82.86;98368.16;5040051;28;20017;-73
2020/12/15 07:26:13;;;;;;;6.85;3.55;;;;;;;4.73;83.77;98365.66;5014909;28;20102;-76
2020/12/15 07:28:40;;;;;;;5.63;3.60;;;;;;;4.72;83.71;98377.41;5032525;28;20029;-77
2020/12/15 07:31:05;;;;;;;7.40;3.78;;;;;;;4.98;83.22;98372.53;5030385;28;20483;-72
2020/12/15 07:33:30;;;;;;;5.70;3.53;;;;;;;5.08;82.11;98368.75;5033170;28;20032;-72
2020/12/15 07:35:55;;;;;;;8.48;3.50;;;;;;;5.20;81.59;98361.97;5013708;28;20483;-72
2020/12/15 07:38:22;;;;;;;8.10;4.47;;;;;;;5.30;81.54;98370.59;5032824;28;20151;-72
2020/12/15 07:40:47;;;;;;;6.05;4.13;;;;;;;5.42;80.73;98371.84;5030593;28;20033;-72
2020/12/15 07:43:16;;;;;;;7.93;4.70;;;;;;;5.36;81.18;98369.03;5032758;28;20040;-72
2020/12/15 07:45:41;;;;;;;9.23;5.32;;;;;;;5.35;82.38;98380.81;5013474;28;20029;-72
2020/12/15 07:48:07;;;;;;;13.85;6.70;;;;;;;5.23;83.20;98383.88;5020994;28;20108;-72
2020/12/15 07:50:33;;;;;;;14.35;8.27;;;;;;;5.20;83.45;98386.94;5024227;28;20029;-72
2020/12/15 07:53:09;;;;;;;18.48;9.38;;;;;;;5.10;82.36;98390.88;5029603;28;20036;-75
2020/12/15 07:55:35;;;;;;;15.93;8.40;;;;;;;5.26;81.73;98382.69;5019933;28;20030;-75
2020/12/15 07:58:02;;;;;;;13.48;8.18;;;;;;;5.04;82.19;98369.13;5013753;28;20025;-73
2020/12/15 08:00:27;;;;;;;21.23;8.93;;;;;;;5.18;82.66;98380.09;5032126;28;20119;-73
2020/12/15 08:03:00;;;;;;;14.10;7.90;;;;;;;5.25;82.87;98386.41;5022581;28;20450;-71
2020/12/15 08:05:25;;;;;;;13.25;7.45;;;;;;;5.27;83.33;98387.91;5034846;28;20089;-69
2020/12/15 08:07:56;;;;;;;18.33;8.75;;;;;;;5.26;83.88;98391.56;5035938;28;20036;-72
2020/12/15 08:10:27;;;;;;;25.65;11.00;;;;;;;5.31;83.58;98382.16;5050696;28;20021;-75
2020/12/15 08:12:55;;;;;;;20.17;8.65;;;;;;;5.46;81.14;98383.88;5054688;28;20045;-72
2020/12/15 08:15:21;;;;;;;13.67;6.50;;;;;;;5.62;79.56;98390.13;5051033;28;20040;-73
2020/12/15 08:17:48;;;;;;;7.93;4.40;;;;;;;5.78;78.38;98381.91;5051074;28;20026;-69
2020/12/15 08:20:17;;;;;;;9.45;3.47;;;;;;;6.05;77.21;98387.69;5032617;28;20021;-70
2020/12/15 08:22:45;;;;;;;8.73;4.25;;;;;;;6.32;76.66;98391.59;5050380;28;20044;-73
2020/12/15 08:25:13;;;;;;;9.45;4.63;;;;;;;6.52;76.53;98400.75;5033825;28;20025;-70
2020/12/15 08:27:38;;;;;;;7.20;4.13;;;;;;;6.65;76.64;98401.91;5048684;28;20068;-69
2020/12/15 08:30:17;;;;;;;7.43;4.20;;;;;;;6.70;76.01;98404.88;5047347;28;20026;-68
2020/12/15 08:32:50;;;;;;;5.15;2.63;;;;;;;6.90;74.09;98402.44;5038883;28;20029;-71
2020/12/15 08:35:23;;;;;;;7.05;2.95;;;;;;;6.80;73.81;98405.41;5046291;28;20474;-69
2020/12/15 08:37:55;;;;;;;8.27;3.10;;;;;;;6.64;74.48;98408.34;5048575;28;20029;-71
2020/12/15 08:40:21;;;;;;;5.53;2.92;;;;;;;6.85;74.85;98416.44;5047517;28;20022;-70
2020/12/15 08:42:47;;;;;;;6.70;3.90;;;;;;;6.75;75.03;98419.41;5021752;28;20036;-70
2020/12/15 08:45:15;;;;;;;6.25;3.72;;;;;;;6.74;75.44;98417.75;5031644;28;20030;-70
2020/12/15 08:47:45;;;;;;;5.95;3.22;;;;;;;6.70;76.13;98426.38;5025342;28;20030;-69
2020/12/15 08:50:12;;;;;;;7.22;4.05;;;;;;;6.70;77.17;98418.31;5014282;28;20025;-71
2020/12/15 08:52:38;;;;;;;7.32;3.80;;;;;;;6.77;77.94;98422.75;5014512;28;20021;-70
2020/12/15 08:55:03;;;;;;;6.22;3.42;;;;;;;6.72;78.71;98413.59;5035416;28;20356;-71
2020/12/15 08:57:29;;;;;;;5.50;3.25;;;;;;;6.50;79.76;98413.53;5035846;28;20043;-71
2020/12/15 08:59:54;;;;;;;5.88;3.25;;;;;;;6.61;80.17;98440.97;5028849;28;20510;-69
2020/12/15 09:02:20;;;;;;;4.28;2.78;;;;;;;6.48;80.82;98430.88;5043530;28;20025;-71
2020/12/15 09:04:46;;;;;;;5.95;3.10;;;;;;;6.43;80.52;98438.66;5034517;28;20017;-70
2020/12/15 09:07:17;;;;;;;5.97;2.75;;;;;;;6.58;78.84;98436.81;5032629;28;20033;-72
2020/12/15 09:09:43;;;;;;;5.43;3.15;;;;;;;6.50;77.35;98436.91;5032404;28;20124;-73
2020/12/15 09:12:10;;;;;;;10.45;3.53;;;;;;;6.48;78.54;98434.38;5035140;28;20104;-71
2020/12/15 09:14:35;;;;;;;6.57;2.92;;;;;;;6.58;78.01;98434.09;5035911;28;20037;-70
2020/12/15 09:17:00;;;;;;;6.20;3.55;;;;;;;6.48;78.74;98434.38;5022796;28;20080;-74
2020/12/15 09:19:27;;;;;;;8.80;3.70;;;;;;;6.77;78.74;98444.28;5032238;28;20033;-71
2020/12/15 09:22:00;;;;;;;10.02;4.95;;;;;;;6.74;78.79;98452.72;5034935;28;20028;-72
2020/12/15 09:24:27;;;;;;;8.27;4.45;;;;;;;6.63;80.77;98439.75;5033648;28;20056;-75
2020/12/15 09:26:53;;;;;;;9.32;4.88;;;;;;;6.66;81.86;98442.06;5029092;28;20602;-72
2020/12/15 09:29:18;;;;;;;8.23;4.47;;;;;;;6.74;81.72;98446.50;5031605;28;20037;-74
2020/12/15 09:31:51;;;;;;;6.93;3.70;;;;;;;6.78;80.18;98440.56;5034918;28;20032;-74
2020/12/15 09:34:17;;;;;;;6.97;3.53;;;;;;;6.75;81.29;98448.16;5034204;28;20021;-75
2020/12/15 09:36:42;;;;;;;5.75;3.50;;;;;;;6.67;82.38;98437.53;5034649;28;20026;-75
2020/12/15 09:39:08;;;;;;;5.70;2.83;;;;;;;6.57;81.87;98443.19;5033892;28;20498;-75
2020/12/15 09:41:35;;;;;;;7.63;3.00;;;;;;;6.62;81.83;98448.81;5033257;28;20033;-79
2020/12/15 09:44:00;;;;;;;7.20;3.25;;;;;;;6.62;82.29;98448.81;5032632;28;20022;-72
2020/12/15 09:46:26;;;;;;;7.75;3.80;;;;;;;6.76;82.64;98464.13;5033815;28;20033;-72
2020/12/15 09:48:51;;;;;;;8.02;3.40;;;;;;;6.72;82.00;98454.75;5035360;28;20025;-76
2020/12/15 09:51:16;;;;;;;7.22;3.05;;;;;;;6.74;82.48;98449.19;5037059;28;20361;-76
2020/12/15 09:53:41;;;;;;;6.60;3.08;;;;;;;6.79;82.19;98442.22;5036783;28;20460;-78
2020/12/15 09:56:07;;;;;;;5.05;2.95;;;;;;;6.69;80.88;98422.03;5018794;28;20027;-77
2020/12/15 09:58:32;;;;;;;5.03;2.78;;;;;;;6.82;79.67;98430.28;5034071;28;20049;-74
2020/12/15 10:00:57;;;;;;;6.13;3.65;;;;;;;6.97;78.26;98428.38;5039373;28;20025;-76
2020/12/15 10:03:23;;;;;;;6.57;3.20;;;;;;;7.13;78.84;98426.50;5040576;28;20021;-81
2020/12/15 10:05:48;;;;;;;5.45;2.80;;;;;;;7.10;77.37;98429.53;5022811;28;20387;-69
2020/12/15 10:08:14;;;;;;;6.60;3.40;;;;;;;7.11;79.65;98423.16;5034279;28;20028;-70
2020/12/15 10:10:40;;;;;;;5.78;2.97;;;;;;;7.21;79.00;98421.00;5034473;28;20116;-71
2020/12/15 10:13:06;;;;;;;6.35;3.33;;;;;;;7.29;79.15;98425.41;5015486;28;20132;-70
2020/12/15 10:15:31;;;;;;;7.30;2.95;;;;;;;7.58;75.86;98406.44;5031741;28;20120;-70
2020/12/15 10:17:56;;;;;;;4.43;2.35;;;;;;;7.55;75.13;98412.19;5038697;28;20037;-75
2020/12/15 10:20:23;;;;;;;4.65;2.25;;;;;;;7.67;75.36;98410.63;5038156;28;20064;-68
2020/12/15 10:22:48;;;;;;;3.38;2.20;;;;;;;7.83;74.61;98408.69;5039316;28;20033;-70
2020/12/15 10:25:13;;;;;;;4.70;2.63;;;;;;;7.73;74.32;98417.13;5016253;28;20030;-71
2020/12/15 10:27:38;;;;;;;4.85;2.47;;;;;;;7.79;73.54;98412.81;5033671;28;20087;-72
2020/12/15 10:30:04;;;;;;;4.10;2.58;;;;;;;7.96;75.24;98419.56;5032873;28;20041;-74
2020/12/15 10:32:29;;;;;;;4.43;2.90;;;;;;;7.92;76.53;98404.84;5033815;28;20036;-76
2020/12/15 10:34:55;;;;;;;3.00;2.20;;;;;;;8.02;74.08;98399.94;5031936;28;20497;-74
2020/12/15 10:37:23;;;;;;;6.13;2.33;;;;;;;8.15;73.65;98406.41;5031971;28;20036;-76
2020/12/15 10:39:50;;;;;;;5.10;2.65;;;;;;;8.19;72.30;98397.75;5020913;28;20502;-77
2020/12/15 10:42:15;;;;;;;6.38;3.63;;;;;;;8.33;71.67;98387.88;5016270;28;20466;-74
2020/12/15 10:44:41;;;;;;;7.47;4.47;;;;;;;8.33;70.90;98387.88;5012297;28;20065;-75
2020/12/15 10:47:06;;;;;;;5.40;3.38;;;;;;;8.52;69.56;98391.75;5018209;28;20086;-78
2020/12/15 10:49:31;;;;;;;7.38;3.65;;;;;;;8.35;69.83;98385.81;5017851;28;20033;-76
2020/12/15 10:51:57;;;;;;;4.90;2.90;;;;;;;8.45;71.11;98386.31;5025297;28;20482;-76
2020/12/15 10:54:22;;;;;;;5.22;2.55;;;;;;;8.21;71.08;98384.09;5025921;28;20100;-78
2020/12/15 10:56:48;;;;;;;6.22;2.80;;;;;;;8.25;71.77;98377.25;5020847;28;20029;-79
2020/12/15 10:59:13;;;;;;;7.45;2.75;;;;;;;8.18;72.13;98403.34;5029973;28;20526;-73
2020/12/15 11:01:39;;;;;;;5.20;2.83;;;;;;;8.12;72.52;98408.50;5024945;28;20033;-72
2020/12/15 11:04:04;;;;;;;5.80;3.67;;;;;;;8.13;72.44;98409.31;5028224;28;20036;-75
2020/12/15 11:06:31;;;;;;;5.70;2.80;;;;;;;7.91;73.27;98405.84;5018174;28;20478;-80
2020/12/15 11:08:56;;;;;;;7.38;2.92;;;;;;;7.71;74.46;98394.94;5027965;28;20059;-77
2020/12/15 11:11:21;;;;;;;6.28;2.75;;;;;;;7.67;76.41;98424.09;5032106;28;20029;-77
2020/12/15 11:13:47;;;;;;;4.45;2.45;;;;;;;7.54;77.16;98415.91;5034750;28;20120;-75
2020/12/15 11:16:12;;;;;;;6.80;3.13;;;;;;;7.60;76.96;98425.09;5031599;28;20308;-75
2020/12/15 11:18:38;;;;;;;7.53;3.95;;;;;;;7.60;76.83;98420.53;5033439;28;20017;-74
2020/12/15 11:21:03;;;;;;;8.40;4.15;;;;;;;7.51;77.53;98413.59;5033277;28;20029;-75
2020/12/15 11:23:29;;;;;;;7.35;3.20;;;;;;;7.51;78.03;98423.53;5033634;28;20029;-75
2020/12/15 11:25:54;;;;;;;7.25;3.55;;;;;;;7.44;78.50;98426.16;5031931;28;20657;-75
2020/12/15 11:28:19;;;;;;;8.27;3.88;;;;;;;7.47;77.92;98429.31;5032948;28;20033;-75
2020/12/15 11:30:45;;;;;;;9.68;3.60;;;;;;;7.40;78.88;98419.50;5031909;28;20220;-74
2020/12/15 11:33:11;;;;;;;6.78;3.05;;;;;;;7.33;78.08;98429.38;5030081;28;20462;-71
2020/12/15 11:35:36;;;;;;;4.43;2.67;;;;;;;7.18;79.58;98411.44;5027999;28;20423;-70